sensor_id;sensor_type;location;lat;lon;timestamp;P1;durP1;ratioP1;P2;durP2;ratioP2
21860;SDS011;11095;48.066;8.540;2023-06-14T00:01:27;4.05;;;3.65;;
21860;SDS011;11095;48.066;8.540;2023-06-14T00:03:53;5.03;;;3.90;;
21860;SDS011;11095;48.066;8.540;2023-06-14T00:06:20;4.72;;;3.67;;
21860;SDS011;11095;48.066;8.540;2023-06-14T00:08:46;4.57;;;3.38;;
21860;SDS011;11095;48.066;8.540;2023-06-14T00:11:11;5.65;;;3.88;;
21860;SDS011;11095;48.066;8.540;2023-06-14T00:13:37;5.78;;;3.95;;
21860;SDS011;11095;48.066;8.540;2023-06-14T00:16:02;4.70;;;3.92;;
21860;SDS011;11095;48.066;8.540;2023-06-14T00:18:28;4.88;;;3.88;;
21860;SDS011;11095;48.066;8.540;2023-06-14T00:20:54;6.68;;;4.55;;
21860;SDS011;11095;48.066;8.540;2023-06-14T00:23:20;5.22;;;4.13;;
21860;SDS011;11095;48.066;8.540;2023-06-14T00:25:46;5.00;;;4.07;;
21860;SDS011;11095;48.066;8.540;2023-06-14T00:28:11;4.85;;;4.30;;
21860;SDS011;11095;48.066;8.540;2023-06-14T00:30:37;4.25;;;3.50;;
21860;SDS011;11095;48.066;8.540;2023-06-14T00:33:02;5.72;;;3.72;;
21860;SDS011;11095;48.066;8.540;2023-06-14T00:35:29;5.72;;;3.72;;
21860;SDS011;11095;48.066;8.540;2023-06-14T00:37:54;4.45;;;3.58;;
21860;SDS011;11095;48.066;8.540;2023-06-14T00:40:20;4.57;;;3.60;;
21860;SDS011;11095;48.066;8.540;2023-06-14T00:42:46;5.00;;;3.78;;
21860;SDS011;11095;48.066;8.540;2023-06-14T00:45:12;6.85;;;3.88;;
21860;SDS011;11095;48.066;8.540;2023-06-14T00:47:38;4.65;;;3.90;;
21860;SDS011;11095;48.066;8.540;2023-06-14T00:50:06;4.38;;;3.70;;
21860;SDS011;11095;48.066;8.540;2023-06-14T00:52:32;5.45;;;4.70;;
21860;SDS011;11095;48.066;8.540;2023-06-14T00:54:59;6.30;;;4.45;;
21860;SDS011;11095;48.066;8.540;2023-06-14T00:57:25;5.32;;;4.53;;
21860;SDS011;11095;48.066;8.540;2023-06-14T00:59:51;6.57;;;4.60;;
21860;SDS011;11095;48.066;8.540;2023-06-14T01:02:17;5.18;;;4.35;;
21860;SDS011;11095;48.066;8.540;2023-06-14T01:04:43;5.57;;;4.40;;
21860;SDS011;11095;48.066;8.540;2023-06-14T01:10:21;5.63;;;3.85;;
21860;SDS011;11095;48.066;8.540;2023-06-14T01:15:26;5.15;;;4.20;;
21860;SDS011;11095;48.066;8.540;2023-06-14T01:17:54;5.82;;;4.18;;
21860;SDS011;11095;48.066;8.540;2023-06-14T01:20:22;7.13;;;4.40;;
21860;SDS011;11095;48.066;8.540;2023-06-14T01:22:57;4.72;;;4.22;;
21860;SDS011;11095;48.066;8.540;2023-06-14T01:25:23;5.20;;;4.30;;
21860;SDS011;11095;48.066;8.540;2023-06-14T01:27:51;6.35;;;4.50;;
21860;SDS011;11095;48.066;8.540;2023-06-14T01:30:23;6.18;;;4.50;;
21860;SDS011;11095;48.066;8.540;2023-06-14T01:32:50;5.47;;;4.38;;
21860;SDS011;11095;48.066;8.540;2023-06-14T01:35:17;5.32;;;4.10;;
21860;SDS011;11095;48.066;8.540;2023-06-14T01:37:42;4.60;;;4.05;;
21860;SDS011;11095;48.066;8.540;2023-06-14T01:40:09;4.65;;;4.07;;
21860;SDS011;11095;48.066;8.540;2023-06-14T01:42:37;5.10;;;4.20;;
21860;SDS011;11095;48.066;8.540;2023-06-14T01:45:04;5.40;;;4.20;;
21860;SDS011;11095;48.066;8.540;2023-06-14T01:47:31;5.82;;;4.22;;
21860;SDS011;11095;48.066;8.540;2023-06-14T01:49:58;4.53;;;3.88;;
21860;SDS011;11095;48.066;8.540;2023-06-14T01:52:23;4.75;;;4.03;;
21860;SDS011;11095;48.066;8.540;2023-06-14T01:54:49;6.80;;;4.90;;
21860;SDS011;11095;48.066;8.540;2023-06-14T01:57:16;5.65;;;4.78;;
21860;SDS011;11095;48.066;8.540;2023-06-14T01:59:41;7.65;;;4.90;;
21860;SDS011;11095;48.066;8.540;2023-06-14T02:02:07;8.57;;;4.68;;
21860;SDS011;11095;48.066;8.540;2023-06-14T02:04:33;5.65;;;4.57;;
21860;SDS011;11095;48.066;8.540;2023-06-14T02:06:58;6.88;;;4.60;;
21860;SDS011;11095;48.066;8.540;2023-06-14T02:09:24;5.45;;;4.40;;
21860;SDS011;11095;48.066;8.540;2023-06-14T02:11:49;6.72;;;4.65;;
21860;SDS011;11095;48.066;8.540;2023-06-14T02:14:15;5.25;;;4.20;;
21860;SDS011;11095;48.066;8.540;2023-06-14T02:16:42;5.82;;;4.47;;
21860;SDS011;11095;48.066;8.540;2023-06-14T02:19:13;8.18;;;5.63;;
21860;SDS011;11095;48.066;8.540;2023-06-14T02:21:42;8.38;;;6.13;;
21860;SDS011;11095;48.066;8.540;2023-06-14T02:24:08;10.15;;;6.60;;
21860;SDS011;11095;48.066;8.540;2023-06-14T02:26:33;11.05;;;6.75;;
21860;SDS011;11095;48.066;8.540;2023-06-14T02:28:59;10.23;;;6.70;;
21860;SDS011;11095;48.066;8.540;2023-06-14T02:31:25;12.77;;;6.15;;
21860;SDS011;11095;48.066;8.540;2023-06-14T02:33:50;13.00;;;6.57;;
21860;SDS011;11095;48.066;8.540;2023-06-14T02:36:16;9.18;;;6.00;;
21860;SDS011;11095;48.066;8.540;2023-06-14T02:38:41;7.32;;;5.43;;
21860;SDS011;11095;48.066;8.540;2023-06-14T02:41:07;6.95;;;5.05;;
21860;SDS011;11095;48.066;8.540;2023-06-14T02:43:32;6.40;;;4.85;;
21860;SDS011;11095;48.066;8.540;2023-06-14T02:45:58;5.85;;;4.90;;
21860;SDS011;11095;48.066;8.540;2023-06-14T02:48:24;5.45;;;4.63;;
21860;SDS011;11095;48.066;8.540;2023-06-14T02:50:49;6.50;;;4.60;;
21860;SDS011;11095;48.066;8.540;2023-06-14T02:59:14;7.05;;;4.72;;
21860;SDS011;11095;48.066;8.540;2023-06-14T03:01:52;6.45;;;4.40;;
21860;SDS011;11095;48.066;8.540;2023-06-14T03:04:21;6.05;;;4.30;;
21860;SDS011;11095;48.066;8.540;2023-06-14T03:06:47;8.48;;;4.97;;
21860;SDS011;11095;48.066;8.540;2023-06-14T03:09:15;7.63;;;5.07;;
21860;SDS011;11095;48.066;8.540;2023-06-14T03:11:41;6.38;;;5.10;;
21860;SDS011;11095;48.066;8.540;2023-06-14T03:14:21;6.28;;;4.97;;
21860;SDS011;11095;48.066;8.540;2023-06-14T03:16:52;6.30;;;4.60;;
21860;SDS011;11095;48.066;8.540;2023-06-14T03:19:21;6.57;;;5.18;;
21860;SDS011;11095;48.066;8.540;2023-06-14T03:21:48;5.95;;;4.95;;
21860;SDS011;11095;48.066;8.540;2023-06-14T03:24:17;7.25;;;5.05;;
21860;SDS011;11095;48.066;8.540;2023-06-14T03:26:42;5.30;;;4.60;;
21860;SDS011;11095;48.066;8.540;2023-06-14T03:29:08;6.50;;;4.75;;
21860;SDS011;11095;48.066;8.540;2023-06-14T03:31:34;5.22;;;4.45;;
21860;SDS011;11095;48.066;8.540;2023-06-14T03:34:00;8.50;;;4.80;;
21860;SDS011;11095;48.066;8.540;2023-06-14T03:36:27;6.22;;;4.45;;
21860;SDS011;11095;48.066;8.540;2023-06-14T03:38:55;5.50;;;4.90;;
21860;SDS011;11095;48.066;8.540;2023-06-14T03:41:24;6.55;;;4.85;;
21860;SDS011;11095;48.066;8.540;2023-06-14T03:43:53;5.38;;;4.85;;
21860;SDS011;11095;48.066;8.540;2023-06-14T03:46:19;7.60;;;5.07;;
21860;SDS011;11095;48.066;8.540;2023-06-14T03:48:45;6.35;;;4.55;;
21860;SDS011;11095;48.066;8.540;2023-06-14T03:51:18;5.75;;;4.70;;
21860;SDS011;11095;48.066;8.540;2023-06-14T03:53:46;5.60;;;4.82;;
21860;SDS011;11095;48.066;8.540;2023-06-14T03:56:40;5.68;;;4.80;;
21860;SDS011;11095;48.066;8.540;2023-06-14T03:59:34;5.70;;;4.70;;
21860;SDS011;11095;48.066;8.540;2023-06-14T04:02:00;5.20;;;4.50;;
21860;SDS011;11095;48.066;8.540;2023-06-14T04:04:25;5.60;;;4.40;;
21860;SDS011;11095;48.066;8.540;2023-06-14T04:06:55;4.65;;;4.22;;
21860;SDS011;11095;48.066;8.540;2023-06-14T04:09:21;6.90;;;4.30;;
21860;SDS011;11095;48.066;8.540;2023-06-14T04:11:49;6.30;;;4.60;;
21860;SDS011;11095;48.066;8.540;2023-06-14T04:14:16;6.95;;;4.38;;
21860;SDS011;11095;48.066;8.540;2023-06-14T04:16:41;5.53;;;4.78;;
21860;SDS011;11095;48.066;8.540;2023-06-14T04:19:07;6.22;;;4.70;;
21860;SDS011;11095;48.066;8.540;2023-06-14T04:21:33;7.03;;;4.85;;
21860;SDS011;11095;48.066;8.540;2023-06-14T04:23:59;5.50;;;4.60;;
21860;SDS011;11095;48.066;8.540;2023-06-14T04:26:26;5.50;;;4.20;;
21860;SDS011;11095;48.066;8.540;2023-06-14T04:28:54;6.00;;;4.70;;
21860;SDS011;11095;48.066;8.540;2023-06-14T04:31:21;4.40;;;4.00;;
21860;SDS011;11095;48.066;8.540;2023-06-14T04:33:50;6.07;;;4.20;;
21860;SDS011;11095;48.066;8.540;2023-06-14T04:36:18;5.45;;;4.63;;
21860;SDS011;11095;48.066;8.540;2023-06-14T04:38:45;5.28;;;4.30;;
21860;SDS011;11095;48.066;8.540;2023-06-14T04:41:11;5.68;;;4.30;;
21860;SDS011;11095;48.066;8.540;2023-06-14T04:43:37;4.68;;;4.18;;
21860;SDS011;11095;48.066;8.540;2023-06-14T04:46:04;4.55;;;4.13;;
21860;SDS011;11095;48.066;8.540;2023-06-14T04:48:36;5.45;;;4.07;;
21860;SDS011;11095;48.066;8.540;2023-06-14T04:51:07;5.45;;;4.30;;
21860;SDS011;11095;48.066;8.540;2023-06-14T04:53:34;5.28;;;4.15;;
21860;SDS011;11095;48.066;8.540;2023-06-14T04:56:00;5.57;;;3.80;;
21860;SDS011;11095;48.066;8.540;2023-06-14T04:58:26;5.65;;;4.03;;
21860;SDS011;11095;48.066;8.540;2023-06-14T05:00:52;4.50;;;4.10;;
21860;SDS011;11095;48.066;8.540;2023-06-14T05:03:18;5.40;;;3.95;;
21860;SDS011;11095;48.066;8.540;2023-06-14T05:05:46;4.13;;;3.72;;
21860;SDS011;11095;48.066;8.540;2023-06-14T05:08:11;4.15;;;3.75;;
21860;SDS011;11095;48.066;8.540;2023-06-14T05:10:37;4.70;;;3.75;;
21860;SDS011;11095;48.066;8.540;2023-06-14T05:13:03;4.72;;;3.58;;
21860;SDS011;11095;48.066;8.540;2023-06-14T05:15:28;5.70;;;4.47;;
21860;SDS011;11095;48.066;8.540;2023-06-14T05:17:54;5.70;;;3.88;;
21860;SDS011;11095;48.066;8.540;2023-06-14T05:20:24;4.63;;;3.78;;
21860;SDS011;11095;48.066;8.540;2023-06-14T05:22:52;4.20;;;3.80;;
21860;SDS011;11095;48.066;8.540;2023-06-14T05:25:18;5.43;;;3.78;;
21860;SDS011;11095;48.066;8.540;2023-06-14T05:27:45;4.55;;;3.60;;
21860;SDS011;11095;48.066;8.540;2023-06-14T05:30:11;4.70;;;3.83;;
21860;SDS011;11095;48.066;8.540;2023-06-14T05:32:37;4.05;;;3.47;;
21860;SDS011;11095;48.066;8.540;2023-06-14T05:35:03;4.70;;;3.42;;
21860;SDS011;11095;48.066;8.540;2023-06-14T05:37:30;7.13;;;3.97;;
21860;SDS011;11095;48.066;8.540;2023-06-14T05:39:56;5.82;;;4.00;;
21860;SDS011;11095;48.066;8.540;2023-06-14T05:42:22;4.78;;;4.13;;
21860;SDS011;11095;48.066;8.540;2023-06-14T05:44:47;4.32;;;3.53;;
21860;SDS011;11095;48.066;8.540;2023-06-14T05:47:13;4.45;;;3.95;;
21860;SDS011;11095;48.066;8.540;2023-06-14T05:49:38;4.80;;;3.90;;
21860;SDS011;11095;48.066;8.540;2023-06-14T05:52:04;4.10;;;3.70;;
21860;SDS011;11095;48.066;8.540;2023-06-14T05:54:30;5.22;;;3.72;;
21860;SDS011;11095;48.066;8.540;2023-06-14T05:56:56;4.93;;;3.80;;
21860;SDS011;11095;48.066;8.540;2023-06-14T05:59:26;4.65;;;3.42;;
21860;SDS011;11095;48.066;8.540;2023-06-14T06:01:52;4.18;;;3.25;;
21860;SDS011;11095;48.066;8.540;2023-06-14T06:04:17;4.00;;;3.60;;
21860;SDS011;11095;48.066;8.540;2023-06-14T06:06:43;4.88;;;3.60;;
21860;SDS011;11095;48.066;8.540;2023-06-14T06:09:10;4.53;;;3.30;;
21860;SDS011;11095;48.066;8.540;2023-06-14T06:11:35;5.10;;;3.90;;
21860;SDS011;11095;48.066;8.540;2023-06-14T06:14:01;6.70;;;3.85;;
21860;SDS011;11095;48.066;8.540;2023-06-14T06:16:27;4.18;;;3.30;;
21860;SDS011;11095;48.066;8.540;2023-06-14T06:18:52;4.78;;;3.67;;
21860;SDS011;11095;48.066;8.540;2023-06-14T06:21:18;5.47;;;3.88;;
21860;SDS011;11095;48.066;8.540;2023-06-14T06:23:43;5.22;;;3.50;;
21860;SDS011;11095;48.066;8.540;2023-06-14T06:26:09;5.18;;;3.30;;
21860;SDS011;11095;48.066;8.540;2023-06-14T06:28:35;7.05;;;3.58;;
21860;SDS011;11095;48.066;8.540;2023-06-14T06:31:00;4.63;;;3.58;;
21860;SDS011;11095;48.066;8.540;2023-06-14T06:33:26;6.05;;;3.53;;
21860;SDS011;11095;48.066;8.540;2023-06-14T06:35:51;8.05;;;3.65;;
21860;SDS011;11095;48.066;8.540;2023-06-14T06:38:17;7.22;;;3.58;;
21860;SDS011;11095;48.066;8.540;2023-06-14T06:40:43;7.47;;;3.85;;
21860;SDS011;11095;48.066;8.540;2023-06-14T06:43:09;8.15;;;3.45;;
21860;SDS011;11095;48.066;8.540;2023-06-14T06:45:38;8.32;;;3.60;;
21860;SDS011;11095;48.066;8.540;2023-06-14T06:48:04;7.28;;;3.50;;
21860;SDS011;11095;48.066;8.540;2023-06-14T06:50:30;7.93;;;3.40;;
21860;SDS011;11095;48.066;8.540;2023-06-14T06:52:56;7.32;;;3.45;;
21860;SDS011;11095;48.066;8.540;2023-06-14T06:55:22;7.20;;;3.40;;
21860;SDS011;11095;48.066;8.540;2023-06-14T06:57:48;7.25;;;3.70;;
21860;SDS011;11095;48.066;8.540;2023-06-14T07:00:14;6.63;;;3.50;;
21860;SDS011;11095;48.066;8.540;2023-06-14T07:02:41;6.78;;;3.40;;
21860;SDS011;11095;48.066;8.540;2023-06-14T07:05:06;6.78;;;3.13;;
21860;SDS011;11095;48.066;8.540;2023-06-14T07:07:32;4.22;;;3.60;;
21860;SDS011;11095;48.066;8.540;2023-06-14T07:09:59;5.43;;;3.55;;
21860;SDS011;11095;48.066;8.540;2023-06-14T07:12:25;5.10;;;3.55;;
21860;SDS011;11095;48.066;8.540;2023-06-14T07:14:51;6.13;;;3.70;;
21860;SDS011;11095;48.066;8.540;2023-06-14T07:17:16;5.90;;;3.25;;
21860;SDS011;11095;48.066;8.540;2023-06-14T07:19:42;6.15;;;3.58;;
21860;SDS011;11095;48.066;8.540;2023-06-14T07:22:07;6.28;;;3.58;;
21860;SDS011;11095;48.066;8.540;2023-06-14T07:24:33;6.68;;;3.75;;
21860;SDS011;11095;48.066;8.540;2023-06-14T07:27:01;9.75;;;3.58;;
21860;SDS011;11095;48.066;8.540;2023-06-14T07:29:28;6.22;;;3.60;;
21860;SDS011;11095;48.066;8.540;2023-06-14T07:31:53;4.60;;;3.58;;
21860;SDS011;11095;48.066;8.540;2023-06-14T07:34:19;6.13;;;3.30;;
21860;SDS011;11095;48.066;8.540;2023-06-14T07:36:45;5.72;;;3.40;;
21860;SDS011;11095;48.066;8.540;2023-06-14T07:39:11;7.53;;;3.47;;
21860;SDS011;11095;48.066;8.540;2023-06-14T07:41:37;6.45;;;3.33;;
21860;SDS011;11095;48.066;8.540;2023-06-14T07:44:18;8.18;;;3.50;;
21860;SDS011;11095;48.066;8.540;2023-06-14T07:46:44;9.50;;;3.50;;
21860;SDS011;11095;48.066;8.540;2023-06-14T07:49:11;5.90;;;3.45;;
21860;SDS011;11095;48.066;8.540;2023-06-14T07:51:36;7.50;;;3.40;;
21860;SDS011;11095;48.066;8.540;2023-06-14T07:54:02;5.03;;;3.30;;
21860;SDS011;11095;48.066;8.540;2023-06-14T07:56:28;7.13;;;3.38;;
21860;SDS011;11095;48.066;8.540;2023-06-14T07:58:54;8.55;;;3.60;;
21860;SDS011;11095;48.066;8.540;2023-06-14T08:01:25;5.43;;;3.28;;
21860;SDS011;11095;48.066;8.540;2023-06-14T08:03:52;4.43;;;3.13;;
21860;SDS011;11095;48.066;8.540;2023-06-14T08:06:18;5.32;;;3.00;;
21860;SDS011;11095;48.066;8.540;2023-06-14T08:08:47;6.20;;;3.25;;
21860;SDS011;11095;48.066;8.540;2023-06-14T08:11:13;6.10;;;3.10;;
21860;SDS011;11095;48.066;8.540;2023-06-14T08:13:39;6.65;;;3.08;;
21860;SDS011;11095;48.066;8.540;2023-06-14T08:16:05;3.80;;;3.03;;
21860;SDS011;11095;48.066;8.540;2023-06-14T08:18:33;4.50;;;3.20;;
21860;SDS011;11095;48.066;8.540;2023-06-14T08:21:07;4.30;;;3.20;;
21860;SDS011;11095;48.066;8.540;2023-06-14T08:23:33;5.10;;;3.30;;
21860;SDS011;11095;48.066;8.540;2023-06-14T08:25:59;8.48;;;3.55;;
21860;SDS011;11095;48.066;8.540;2023-06-14T08:28:26;6.30;;;3.55;;
21860;SDS011;11095;48.066;8.540;2023-06-14T08:30:52;4.70;;;3.58;;
21860;SDS011;11095;48.066;8.540;2023-06-14T08:33:17;3.33;;;3.00;;
21860;SDS011;11095;48.066;8.540;2023-06-14T08:35:48;3.70;;;3.25;;
21860;SDS011;11095;48.066;8.540;2023-06-14T08:38:14;5.43;;;3.25;;
21860;SDS011;11095;48.066;8.540;2023-06-14T08:40:48;4.85;;;3.50;;
21860;SDS011;11095;48.066;8.540;2023-06-14T08:43:16;4.25;;;3.15;;
21860;SDS011;11095;48.066;8.540;2023-06-14T08:45:42;5.15;;;3.38;;
21860;SDS011;11095;48.066;8.540;2023-06-14T08:48:17;4.57;;;3.40;;
21860;SDS011;11095;48.066;8.540;2023-06-14T08:50:45;6.22;;;3.30;;
21860;SDS011;11095;48.066;8.540;2023-06-14T08:53:13;5.10;;;3.45;;
21860;SDS011;11095;48.066;8.540;2023-06-14T08:55:44;4.07;;;3.30;;
21860;SDS011;11095;48.066;8.540;2023-06-14T08:58:10;6.55;;;3.60;;
21860;SDS011;11095;48.066;8.540;2023-06-14T09:00:39;5.80;;;3.37;;
21860;SDS011;11095;48.066;8.540;2023-06-14T09:03:06;4.53;;;3.33;;
21860;SDS011;11095;48.066;8.540;2023-06-14T09:05:38;4.00;;;3.33;;
21860;SDS011;11095;48.066;8.540;2023-06-14T09:08:04;6.45;;;3.58;;
21860;SDS011;11095;48.066;8.540;2023-06-14T09:10:30;7.43;;;3.88;;
21860;SDS011;11095;48.066;8.540;2023-06-14T09:13:02;5.22;;;3.30;;
21860;SDS011;11095;48.066;8.540;2023-06-14T09:15:28;5.95;;;3.20;;
21860;SDS011;11095;48.066;8.540;2023-06-14T09:17:55;6.85;;;3.30;;
21860;SDS011;11095;48.066;8.540;2023-06-14T09:20:21;4.40;;;3.55;;
21860;SDS011;11095;48.066;8.540;2023-06-14T09:22:49;5.75;;;3.65;;
21860;SDS011;11095;48.066;8.540;2023-06-14T09:25:16;7.30;;;3.80;;
21860;SDS011;11095;48.066;8.540;2023-06-14T09:27:43;7.03;;;4.00;;
21860;SDS011;11095;48.066;8.540;2023-06-14T09:30:10;4.95;;;3.75;;
21860;SDS011;11095;48.066;8.540;2023-06-14T09:32:37;4.10;;;3.25;;
21860;SDS011;11095;48.066;8.540;2023-06-14T09:35:05;5.30;;;3.50;;
21860;SDS011;11095;48.066;8.540;2023-06-14T09:37:32;5.10;;;3.60;;
21860;SDS011;11095;48.066;8.540;2023-06-14T09:39:58;4.55;;;3.20;;
21860;SDS011;11095;48.066;8.540;2023-06-14T09:42:24;4.65;;;3.63;;
21860;SDS011;11095;48.066;8.540;2023-06-14T09:44:51;4.43;;;3.25;;
21860;SDS011;11095;48.066;8.540;2023-06-14T09:47:18;4.63;;;3.28;;
21860;SDS011;11095;48.066;8.540;2023-06-14T09:49:44;3.80;;;3.40;;
21860;SDS011;11095;48.066;8.540;2023-06-14T09:52:13;4.40;;;3.60;;
21860;SDS011;11095;48.066;8.540;2023-06-14T09:54:42;5.35;;;3.45;;
21860;SDS011;11095;48.066;8.540;2023-06-14T09:57:12;4.20;;;3.45;;
21860;SDS011;11095;48.066;8.540;2023-06-14T09:59:40;5.55;;;3.45;;
21860;SDS011;11095;48.066;8.540;2023-06-14T10:02:10;5.28;;;3.60;;
21860;SDS011;11095;48.066;8.540;2023-06-14T10:04:45;4.85;;;3.30;;
21860;SDS011;11095;48.066;8.540;2023-06-14T10:07:16;4.57;;;3.58;;
21860;SDS011;11095;48.066;8.540;2023-06-14T10:09:45;6.90;;;4.00;;
21860;SDS011;11095;48.066;8.540;2023-06-14T10:12:17;5.20;;;3.60;;
21860;SDS011;11095;48.066;8.540;2023-06-14T10:14:46;5.75;;;3.35;;
21860;SDS011;11095;48.066;8.540;2023-06-14T10:17:17;5.83;;;4.00;;
21860;SDS011;11095;48.066;8.540;2023-06-14T10:19:58;5.60;;;3.70;;
21860;SDS011;11095;48.066;8.540;2023-06-14T10:22:36;5.43;;;4.18;;
21860;SDS011;11095;48.066;8.540;2023-06-14T10:25:08;4.88;;;3.95;;
21860;SDS011;11095;48.066;8.540;2023-06-14T10:27:38;5.38;;;4.10;;
21860;SDS011;11095;48.066;8.540;2023-06-14T10:30:05;5.22;;;3.88;;
21860;SDS011;11095;48.066;8.540;2023-06-14T10:32:32;5.72;;;3.97;;
21860;SDS011;11095;48.066;8.540;2023-06-14T10:34:59;6.70;;;4.15;;
21860;SDS011;11095;48.066;8.540;2023-06-14T10:37:34;7.63;;;3.75;;
21860;SDS011;11095;48.066;8.540;2023-06-14T10:40:00;4.28;;;3.88;;
21860;SDS011;11095;48.066;8.540;2023-06-14T10:42:32;4.53;;;3.80;;
21860;SDS011;11095;48.066;8.540;2023-06-14T10:44:58;7.75;;;4.00;;
21860;SDS011;11095;48.066;8.540;2023-06-14T10:47:32;5.97;;;3.85;;
21860;SDS011;11095;48.066;8.540;2023-06-14T10:52:33;4.65;;;3.88;;
21860;SDS011;11095;48.066;8.540;2023-06-14T10:57:41;4.53;;;4.00;;
21860;SDS011;11095;48.066;8.540;2023-06-14T11:00:07;5.45;;;3.80;;
21860;SDS011;11095;48.066;8.540;2023-06-14T11:05:28;6.43;;;4.15;;
21860;SDS011;11095;48.066;8.540;2023-06-14T11:10:41;7.18;;;4.13;;
21860;SDS011;11095;48.066;8.540;2023-06-14T11:13:08;6.55;;;4.57;;
21860;SDS011;11095;48.066;8.540;2023-06-14T11:15:34;6.20;;;4.22;;
21860;SDS011;11095;48.066;8.540;2023-06-14T11:18:04;6.88;;;4.20;;
21860;SDS011;11095;48.066;8.540;2023-06-14T11:20:32;6.60;;;4.30;;
21860;SDS011;11095;48.066;8.540;2023-06-14T11:22:59;8.50;;;4.30;;
21860;SDS011;11095;48.066;8.540;2023-06-14T11:25:25;5.47;;;3.80;;
21860;SDS011;11095;48.066;8.540;2023-06-14T11:27:54;6.05;;;3.88;;
21860;SDS011;11095;48.066;8.540;2023-06-14T11:30:20;4.32;;;3.85;;
21860;SDS011;11095;48.066;8.540;2023-06-14T11:32:50;6.55;;;3.80;;
21860;SDS011;11095;48.066;8.540;2023-06-14T11:35:17;7.38;;;4.07;;
21860;SDS011;11095;48.066;8.540;2023-06-14T11:37:43;9.50;;;4.40;;
21860;SDS011;11095;48.066;8.540;2023-06-14T11:40:09;4.47;;;3.80;;
21860;SDS011;11095;48.066;8.540;2023-06-14T11:42:37;5.72;;;4.35;;
21860;SDS011;11095;48.066;8.540;2023-06-14T11:45:07;4.97;;;4.03;;
21860;SDS011;11095;48.066;8.540;2023-06-14T11:47:36;4.90;;;4.30;;
21860;SDS011;11095;48.066;8.540;2023-06-14T11:50:03;9.02;;;4.40;;
21860;SDS011;11095;48.066;8.540;2023-06-14T11:52:30;5.18;;;4.00;;
21860;SDS011;11095;48.066;8.540;2023-06-14T11:54:56;5.85;;;4.00;;
21860;SDS011;11095;48.066;8.540;2023-06-14T11:57:23;5.47;;;4.18;;
21860;SDS011;11095;48.066;8.540;2023-06-14T11:59:49;7.95;;;4.68;;
21860;SDS011;11095;48.066;8.540;2023-06-14T12:02:15;4.47;;;4.07;;
21860;SDS011;11095;48.066;8.540;2023-06-14T12:04:42;7.72;;;4.55;;
21860;SDS011;11095;48.066;8.540;2023-06-14T12:07:14;5.88;;;4.28;;
21860;SDS011;11095;48.066;8.540;2023-06-14T12:09:43;6.78;;;4.13;;
21860;SDS011;11095;48.066;8.540;2023-06-14T12:12:34;5.55;;;4.05;;
21860;SDS011;11095;48.066;8.540;2023-06-14T12:15:02;7.80;;;4.35;;
21860;SDS011;11095;48.066;8.540;2023-06-14T12:17:33;5.70;;;3.92;;
21860;SDS011;11095;48.066;8.540;2023-06-14T12:20:04;4.95;;;3.65;;
21860;SDS011;11095;48.066;8.540;2023-06-14T12:22:51;5.88;;;4.20;;
21860;SDS011;11095;48.066;8.540;2023-06-14T12:27:55;6.22;;;3.95;;
21860;SDS011;11095;48.066;8.540;2023-06-14T12:30:21;6.10;;;3.90;;
21860;SDS011;11095;48.066;8.540;2023-06-14T12:32:47;5.68;;;3.83;;
21860;SDS011;11095;48.066;8.540;2023-06-14T12:35:13;7.35;;;4.15;;
21860;SDS011;11095;48.066;8.540;2023-06-14T12:37:39;8.20;;;3.92;;
21860;SDS011;11095;48.066;8.540;2023-06-14T12:40:05;4.82;;;4.15;;
21860;SDS011;11095;48.066;8.540;2023-06-14T12:42:31;6.63;;;4.13;;
21860;SDS011;11095;48.066;8.540;2023-06-14T12:44:58;5.55;;;3.97;;
21860;SDS011;11095;48.066;8.540;2023-06-14T12:47:24;6.25;;;3.72;;
21860;SDS011;11095;48.066;8.540;2023-06-14T12:49:50;4.95;;;3.90;;
21860;SDS011;11095;48.066;8.540;2023-06-14T12:52:15;9.05;;;3.78;;
21860;SDS011;11095;48.066;8.540;2023-06-14T12:54:41;7.35;;;3.80;;
21860;SDS011;11095;48.066;8.540;2023-06-14T12:57:06;4.95;;;3.65;;
21860;SDS011;11095;48.066;8.540;2023-06-14T12:59:32;5.00;;;3.60;;
21860;SDS011;11095;48.066;8.540;2023-06-14T13:02:19;5.22;;;3.70;;
21860;SDS011;11095;48.066;8.540;2023-06-14T13:04:47;4.55;;;3.95;;
21860;SDS011;11095;48.066;8.540;2023-06-14T13:07:12;8.02;;;4.10;;
21860;SDS011;11095;48.066;8.540;2023-06-14T13:09:39;5.50;;;4.00;;
21860;SDS011;11095;48.066;8.540;2023-06-14T13:12:06;5.70;;;3.70;;
21860;SDS011;11095;48.066;8.540;2023-06-14T13:14:32;7.78;;;3.70;;
21860;SDS011;11095;48.066;8.540;2023-06-14T13:16:57;6.82;;;3.67;;
21860;SDS011;11095;48.066;8.540;2023-06-14T13:19:23;4.78;;;3.83;;
21860;SDS011;11095;48.066;8.540;2023-06-14T13:21:49;6.03;;;4.30;;
21860;SDS011;11095;48.066;8.540;2023-06-14T13:24:14;4.53;;;3.70;;
21860;SDS011;11095;48.066;8.540;2023-06-14T13:26:40;5.70;;;4.15;;
21860;SDS011;11095;48.066;8.540;2023-06-14T13:29:06;8.48;;;3.97;;
21860;SDS011;11095;48.066;8.540;2023-06-14T13:31:31;4.45;;;4.05;;
21860;SDS011;11095;48.066;8.540;2023-06-14T13:33:57;3.97;;;3.60;;
21860;SDS011;11095;48.066;8.540;2023-06-14T13:36:22;4.63;;;3.90;;
21860;SDS011;11095;48.066;8.540;2023-06-14T13:38:48;4.55;;;3.65;;
21860;SDS011;11095;48.066;8.540;2023-06-14T13:41:13;5.07;;;4.00;;
21860;SDS011;11095;48.066;8.540;2023-06-14T13:43:39;5.60;;;3.80;;
21860;SDS011;11095;48.066;8.540;2023-06-14T13:46:05;7.10;;;4.18;;
21860;SDS011;11095;48.066;8.540;2023-06-14T13:48:31;6.07;;;4.03;;
21860;SDS011;11095;48.066;8.540;2023-06-14T13:50:56;6.30;;;4.00;;
21860;SDS011;11095;48.066;8.540;2023-06-14T13:53:24;5.43;;;4.00;;
21860;SDS011;11095;48.066;8.540;2023-06-14T13:55:50;4.88;;;3.90;;
21860;SDS011;11095;48.066;8.540;2023-06-14T13:58:17;6.05;;;3.70;;
21860;SDS011;11095;48.066;8.540;2023-06-14T14:00:43;4.85;;;3.75;;
21860;SDS011;11095;48.066;8.540;2023-06-14T14:03:09;5.55;;;3.88;;
21860;SDS011;11095;48.066;8.540;2023-06-14T14:05:34;4.32;;;3.80;;
21860;SDS011;11095;48.066;8.540;2023-06-14T14:08:00;6.60;;;4.45;;
21860;SDS011;11095;48.066;8.540;2023-06-14T14:10:27;6.13;;;3.50;;
21860;SDS011;11095;48.066;8.540;2023-06-14T14:12:53;5.38;;;3.72;;
21860;SDS011;11095;48.066;8.540;2023-06-14T14:15:19;5.05;;;4.20;;
21860;SDS011;11095;48.066;8.540;2023-06-14T14:17:45;6.95;;;4.10;;
21860;SDS011;11095;48.066;8.540;2023-06-14T14:20:12;6.80;;;4.05;;
21860;SDS011;11095;48.066;8.540;2023-06-14T14:22:40;8.50;;;4.20;;
21860;SDS011;11095;48.066;8.540;2023-06-14T14:25:09;6.43;;;3.83;;
21860;SDS011;11095;48.066;8.540;2023-06-14T14:27:35;5.60;;;4.15;;
21860;SDS011;11095;48.066;8.540;2023-06-14T14:30:02;8.00;;;4.32;;
21860;SDS011;11095;48.066;8.540;2023-06-14T14:32:31;5.30;;;3.88;;
21860;SDS011;11095;48.066;8.540;2023-06-14T14:34:57;5.85;;;3.95;;
21860;SDS011;11095;48.066;8.540;2023-06-14T14:37:23;6.72;;;4.05;;
21860;SDS011;11095;48.066;8.540;2023-06-14T14:39:49;7.25;;;3.90;;
21860;SDS011;11095;48.066;8.540;2023-06-14T14:42:15;6.32;;;3.72;;
21860;SDS011;11095;48.066;8.540;2023-06-14T14:44:40;7.60;;;3.90;;
21860;SDS011;11095;48.066;8.540;2023-06-14T14:47:06;6.28;;;4.05;;
21860;SDS011;11095;48.066;8.540;2023-06-14T14:49:32;5.13;;;4.20;;
21860;SDS011;11095;48.066;8.540;2023-06-14T14:51:57;8.65;;;4.15;;
21860;SDS011;11095;48.066;8.540;2023-06-14T14:54:23;4.95;;;4.10;;
21860;SDS011;11095;48.066;8.540;2023-06-14T14:56:50;4.65;;;4.10;;
21860;SDS011;11095;48.066;8.540;2023-06-14T14:59:16;5.15;;;4.05;;
21860;SDS011;11095;48.066;8.540;2023-06-14T15:01:42;7.03;;;3.85;;
21860;SDS011;11095;48.066;8.540;2023-06-14T15:04:07;8.80;;;4.00;;
21860;SDS011;11095;48.066;8.540;2023-06-14T15:06:33;5.30;;;4.00;;
21860;SDS011;11095;48.066;8.540;2023-06-14T15:09:00;6.53;;;4.20;;
21860;SDS011;11095;48.066;8.540;2023-06-14T15:11:26;5.40;;;4.15;;
21860;SDS011;11095;48.066;8.540;2023-06-14T15:13:53;7.35;;;4.78;;